createdAt,value
2022-11-06T00:01:41.908Z,40.13
2022-11-06T00:04:08.509Z,39.03
2022-11-06T00:06:55.355Z,37.60
2022-11-06T00:09:22.258Z,37.15
2022-11-06T00:11:50.510Z,37.40
2022-11-06T00:14:18.067Z,39.17
2022-11-06T00:16:46.361Z,39.75
2022-11-06T00:19:13.596Z,39.50
2022-11-06T00:21:40.712Z,41.63
2022-11-06T00:24:08.064Z,33.75
2022-11-06T00:26:35.517Z,36.47
2022-11-06T00:29:03.275Z,38.92
2022-11-06T00:31:32.986Z,40.15
2022-11-06T00:34:01.061Z,37.90
2022-11-06T00:36:32.795Z,40.33
2022-11-06T00:39:00.224Z,37.72
2022-11-06T00:41:27.636Z,39.42
2022-11-06T00:43:57.351Z,40.60
2022-11-06T00:46:24.698Z,37.03
2022-11-06T00:48:53.159Z,37.38
2022-11-06T00:51:26.765Z,40.40
2022-11-06T00:53:59.414Z,40.28
2022-11-06T00:56:26.696Z,40.60
2022-11-06T00:58:54.193Z,37.88
2022-11-06T01:01:23.743Z,35.95
2022-11-06T01:04:02.200Z,36.80
2022-11-06T01:06:32.901Z,38.97
2022-11-06T01:09:00.523Z,40.47
2022-11-06T01:11:52.555Z,39.95
2022-11-06T01:14:21.489Z,40.10
2022-11-06T01:16:48.539Z,41.67
2022-11-06T01:19:17.485Z,39.75
2022-11-06T01:21:45.979Z,39.70
2022-11-06T01:24:15.841Z,41.45
2022-11-06T01:27:04.813Z,39.72
2022-11-06T01:29:29.700Z,41.75
2022-11-06T01:31:56.262Z,40.50
2022-11-06T01:34:22.975Z,36.65
2022-11-06T01:36:49.568Z,38.45
2022-11-06T01:39:16.463Z,40.33
2022-11-06T01:41:50.977Z,40.45
2022-11-06T01:44:35.500Z,42.20
2022-11-06T01:47:04.600Z,40.05
2022-11-06T01:49:35.196Z,41.85
2022-11-06T01:52:07.883Z,39.05
2022-11-06T01:54:37.480Z,44.90
2022-11-06T01:57:04.847Z,42.03
2022-11-06T01:59:35.958Z,42.63
2022-11-06T02:02:02.970Z,45.97
2022-11-06T02:04:34.497Z,42.45
2022-11-06T02:07:01.189Z,43.28
2022-11-06T02:09:29.899Z,42.85
2022-11-06T02:12:14.073Z,44.53
2022-11-06T02:15:02.781Z,42.17
2022-11-06T02:17:29.317Z,49.33
2022-11-06T02:20:02.328Z,45.38
2022-11-06T02:22:31.540Z,48.70
2022-11-06T02:25:15.994Z,42.17
2022-11-06T02:27:48.367Z,43.03
2022-11-06T02:30:16.906Z,43.92
2022-11-06T02:32:59.178Z,42.83
2022-11-06T02:35:41.460Z,46.88
2022-11-06T02:38:12.677Z,45.70
2022-11-06T02:40:48.065Z,44.88
2022-11-06T02:43:16.681Z,46.28
2022-11-06T02:45:51.026Z,44.22
2022-11-06T02:48:21.698Z,45.30
2022-11-06T02:50:51.121Z,45.47
2022-11-06T02:53:23.145Z,43.08
2022-11-06T02:55:52.001Z,46.67
2022-11-06T02:58:25.089Z,44.47
2022-11-06T03:00:59.143Z,44.33
2022-11-06T03:03:30.116Z,44.92
2022-11-06T03:06:20.810Z,44.40
2022-11-06T03:09:01.463Z,46.25
2022-11-06T03:11:39.098Z,46.42
2022-11-06T03:14:14.596Z,46.28
2022-11-06T03:17:18.572Z,51.80
2022-11-06T03:19:48.011Z,44.88
2022-11-06T03:22:33.877Z,45.25
2022-11-06T03:25:07.654Z,44.15
2022-11-06T03:27:43.128Z,43.70
2022-11-06T03:30:16.503Z,43.35
2022-11-06T03:32:55.420Z,43.50
2022-11-06T03:35:38.914Z,41.95
2022-11-06T03:38:07.686Z,41.28
2022-11-06T03:40:41.459Z,45.95
2022-11-06T03:43:10.538Z,42.92
2022-11-06T03:45:40.381Z,40.03
2022-11-06T03:48:20.050Z,41.70
2022-11-06T03:51:07.963Z,40.35
2022-11-06T03:53:46.591Z,41.55
2022-11-06T03:56:21.033Z,40.45
2022-11-06T03:58:49.878Z,39.67
2022-11-06T04:01:23.747Z,41.28
2022-11-06T04:03:59.836Z,40.83
2022-11-06T04:09:25.110Z,44.70
2022-11-06T04:12:12.035Z,42.05
2022-11-06T04:14:43.264Z,40.53
2022-11-06T04:17:12.930Z,43.15
2022-11-06T04:19:47.004Z,41.53
2022-11-06T04:22:45.410Z,40.85
2022-11-06T04:25:55.495Z,37.95
2022-11-06T04:28:48.056Z,44.28
2022-11-06T04:31:34.861Z,39.58
2022-11-06T04:34:09.344Z,40.35
2022-11-06T04:36:50.517Z,41.97
2022-11-06T04:39:32.329Z,41.75
2022-11-06T04:42:43.585Z,42.72
2022-11-06T04:45:21.289Z,37.47
2022-11-06T04:47:49.638Z,41.20
2022-11-06T04:50:19.080Z,39.15
2022-11-06T04:52:47.347Z,38.28
2022-11-06T04:55:14.048Z,39.28
2022-11-06T04:57:40.602Z,42.28
2022-11-06T05:00:08.116Z,42.22
2022-11-06T05:02:34.773Z,39.55
2022-11-06T05:05:01.316Z,37.10
2022-11-06T05:07:27.903Z,36.78
2022-11-06T05:09:54.484Z,38.15
2022-11-06T05:12:21.030Z,37.90
2022-11-06T05:14:47.584Z,36.08
2022-11-06T05:17:14.288Z,38.25
2022-11-06T05:19:40.822Z,37.45
2022-11-06T05:22:26.080Z,38.28
2022-11-06T05:24:52.654Z,37.58
2022-11-06T05:27:19.240Z,34.70
2022-11-06T05:29:46.297Z,34.55
2022-11-06T05:32:12.832Z,31.80
2022-11-06T05:34:39.375Z,33.17
2022-11-06T05:37:05.951Z,30.70
2022-11-06T05:39:32.821Z,35.10
2022-11-06T05:42:00.632Z,34.88
2022-11-06T05:44:27.696Z,36.20
2022-11-06T05:46:54.235Z,32.13
2022-11-06T05:49:20.800Z,33.50
2022-11-06T05:51:48.003Z,36.20
2022-11-06T05:54:15.207Z,34.20
2022-11-06T05:56:41.801Z,35.95
2022-11-06T05:59:09.506Z,33.42
2022-11-06T06:01:36.158Z,30.55
2022-11-06T06:04:05.508Z,33.03
2022-11-06T06:06:32.562Z,36.55
2022-11-06T06:08:59.101Z,33.88
2022-11-06T06:11:25.705Z,35.33
2022-11-06T06:13:52.281Z,35.47
2022-11-06T06:16:18.853Z,33.53
2022-11-06T06:18:45.455Z,35.17
2022-11-06T06:21:12.030Z,33.33
2022-11-06T06:23:38.564Z,33.33
2022-11-06T06:26:05.699Z,33.75
2022-11-06T06:28:32.934Z,33.22
2022-11-06T06:31:01.875Z,34.30
2022-11-06T06:33:28.790Z,35.58
2022-11-06T06:35:55.384Z,36.78
2022-11-06T06:38:21.954Z,34.58
2022-11-06T06:40:48.590Z,30.83
2022-11-06T06:43:15.182Z,37.17
2022-11-06T06:45:41.747Z,33.50
2022-11-06T06:48:09.253Z,35.33
2022-11-06T06:50:35.848Z,32.92
2022-11-06T06:53:02.611Z,36.88
2022-11-06T06:55:29.451Z,31.77
2022-11-06T06:58:01.943Z,32.28
2022-11-06T07:00:29.474Z,32.05
2022-11-06T07:02:56.383Z,32.33
2022-11-06T07:05:24.012Z,30.42
2022-11-06T07:07:50.653Z,29.88
2022-11-06T07:10:17.289Z,34.97
2022-11-06T07:12:43.950Z,31.95
2022-11-06T07:15:10.902Z,34.10
2022-11-06T07:17:37.821Z,31.33
2022-11-06T07:20:05.676Z,30.85
2022-11-06T07:22:36.992Z,30.48
2022-11-06T07:25:05.865Z,28.67
2022-11-06T07:27:33.629Z,30.77
2022-11-06T07:30:00.634Z,31.83
2022-11-06T07:32:28.138Z,29.95
2022-11-06T07:34:55.465Z,29.70
2022-11-06T07:37:22.272Z,30.73
2022-11-06T07:39:49.051Z,33.65
2022-11-06T07:42:15.628Z,32.75
2022-11-06T07:44:42.161Z,32.70
2022-11-06T07:47:08.703Z,32.42
2022-11-06T07:49:35.305Z,34.05
2022-11-06T07:52:01.877Z,32.78
2022-11-06T07:54:28.415Z,32.55
2022-11-06T07:56:54.992Z,37.55
2022-11-06T07:59:21.607Z,34.92
2022-11-06T08:01:48.530Z,30.90
2022-11-06T08:04:16.628Z,30.85
2022-11-06T08:06:43.169Z,31.65
2022-11-06T08:09:10.276Z,33.70
2022-11-06T08:11:36.987Z,33.83
2022-11-06T08:14:03.791Z,31.25
2022-11-06T08:16:30.979Z,33.17
2022-11-06T08:18:58.714Z,31.63
2022-11-06T08:21:25.585Z,32.78
2022-11-06T08:23:52.165Z,32.25
2022-11-06T08:26:18.943Z,33.20
2022-11-06T08:28:45.578Z,34.00
2022-11-06T08:31:12.263Z,31.35
2022-11-06T08:33:39.634Z,35.38
2022-11-06T08:36:08.098Z,34.75
2022-11-06T08:38:35.652Z,34.42
2022-11-06T08:41:06.836Z,34.38
2022-11-06T08:43:33.405Z,31.27
2022-11-06T08:46:00.412Z,32.90
2022-11-06T08:48:27.630Z,32.03
2022-11-06T08:50:54.186Z,31.88
2022-11-06T08:53:20.787Z,35.35
2022-11-06T08:55:47.764Z,32.88
2022-11-06T08:58:14.447Z,32.63
2022-11-06T09:00:41.276Z,33.38
2022-11-06T09:03:12.872Z,32.65
2022-11-06T09:05:42.195Z,32.22
2022-11-06T09:08:09.705Z,31.00
2022-11-06T09:10:40.559Z,36.22
2022-11-06T09:13:07.399Z,34.42
2022-11-06T09:15:34.282Z,34.30
2022-11-06T09:18:00.941Z,33.30
2022-11-06T09:20:27.724Z,37.58
2022-11-06T09:22:55.183Z,32.67
2022-11-06T09:25:22.243Z,34.78
2022-11-06T09:27:58.907Z,32.45
2022-11-06T09:30:29.284Z,32.72
2022-11-06T09:32:58.867Z,31.80
2022-11-06T09:35:27.136Z,31.00
2022-11-06T09:37:56.346Z,34.38
2022-11-06T09:40:25.971Z,34.15
2022-11-06T09:43:08.246Z,31.52
2022-11-06T09:45:38.648Z,32.60
2022-11-06T09:48:11.582Z,33.17
2022-11-06T09:50:44.560Z,34.08
2022-11-06T09:53:20.495Z,31.38
2022-11-06T09:55:49.375Z,28.52
2022-11-06T09:58:19.052Z,28.92
2022-11-06T10:00:45.742Z,31.00
2022-11-06T10:03:22.068Z,29.63
2022-11-06T10:05:48.695Z,27.50
2022-11-06T10:08:17.481Z,27.85
2022-11-06T10:11:15.125Z,26.00
2022-11-06T10:13:54.597Z,27.55
2022-11-06T10:16:49.283Z,27.10
2022-11-06T10:20:00.111Z,28.20
2022-11-06T10:23:03.621Z,28.35
2022-11-06T10:25:46.764Z,26.58
2022-11-06T10:28:33.461Z,23.65
2022-11-06T10:31:13.781Z,27.45
2022-11-06T10:33:50.952Z,22.63
2022-11-06T10:36:23.642Z,25.40
2022-11-06T10:38:52.462Z,25.58
2022-11-06T10:41:22.717Z,21.52
2022-11-06T10:44:01.249Z,22.70
2022-11-06T10:46:38.326Z,22.70
2022-11-06T10:49:20.310Z,21.77
2022-11-06T10:52:02.208Z,21.45
2022-11-06T10:55:24.542Z,19.23
2022-11-06T10:58:25.195Z,20.40
2022-11-06T11:00:54.426Z,20.05
2022-11-06T11:03:34.171Z,20.25
2022-11-06T11:06:01.846Z,19.02
2022-11-06T11:08:31.366Z,21.15
2022-11-06T11:11:26.490Z,19.42
2022-11-06T11:13:56.077Z,20.55
2022-11-06T11:16:32.235Z,17.38
2022-11-06T11:19:33.258Z,19.73
2022-11-06T11:22:05.412Z,18.83
2022-11-06T11:24:32.735Z,19.90
2022-11-06T11:27:05.483Z,19.45
2022-11-06T11:29:50.516Z,21.00
2022-11-06T11:32:20.105Z,21.10
2022-11-06T11:34:54.036Z,19.77
2022-11-06T11:37:34.120Z,18.90
2022-11-06T11:40:22.669Z,20.83
2022-11-06T11:42:49.645Z,22.40
2022-11-06T11:45:20.894Z,19.60
2022-11-06T11:47:51.334Z,19.77
2022-11-06T11:50:31.703Z,23.02
2022-11-06T11:53:18.493Z,20.70
2022-11-06T11:55:48.333Z,20.35
2022-11-06T11:58:28.025Z,22.00
2022-11-06T12:00:59.373Z,22.80
2022-11-06T12:03:34.056Z,22.17
2022-11-06T12:06:18.540Z,20.83
2022-11-06T12:08:52.468Z,25.83
2022-11-06T12:11:23.912Z,23.33
2022-11-06T12:14:21.232Z,24.15
2022-11-06T12:16:54.878Z,26.55
2022-11-06T12:19:24.461Z,22.67
2022-11-06T12:22:00.144Z,24.00
2022-11-06T12:25:01.916Z,21.70
2022-11-06T12:27:37.119Z,24.50
2022-11-06T12:30:11.845Z,25.65
2022-11-06T12:33:05.740Z,23.17
2022-11-06T12:35:42.182Z,21.50
2022-11-06T12:39:05.210Z,25.83
2022-11-06T12:41:37.949Z,22.77
2022-11-06T12:44:10.990Z,25.58
2022-11-06T12:47:14.339Z,25.77
2022-11-06T12:50:10.962Z,23.63
2022-11-06T12:53:10.681Z,24.92
2022-11-06T12:56:15.529Z,29.75
2022-11-06T12:59:01.137Z,26.95
2022-11-06T13:01:43.239Z,22.87
2022-11-06T13:04:34.631Z,23.55
2022-11-06T13:07:16.353Z,23.90
2022-11-06T13:09:48.059Z,25.35
2022-11-06T13:12:48.768Z,26.25
2022-11-06T13:15:18.199Z,28.08
2022-11-06T13:17:58.229Z,27.60
2022-11-06T13:20:33.429Z,23.40
2022-11-06T13:23:16.587Z,24.02
2022-11-06T13:25:54.520Z,24.15
2022-11-06T13:29:03.075Z,21.88
2022-11-06T13:31:40.688Z,21.17
2022-11-06T13:34:14.019Z,24.70
2022-11-06T13:36:40.870Z,20.80
2022-11-06T13:39:15.393Z,25.60
2022-11-06T13:41:41.989Z,23.85
2022-11-06T13:44:17.042Z,24.83
2022-11-06T13:47:14.765Z,23.13
2022-11-06T13:49:55.962Z,21.42
2022-11-06T13:52:35.604Z,23.88
2022-11-06T13:55:05.452Z,21.85
2022-11-06T13:57:59.513Z,22.23
2022-11-06T14:00:46.579Z,24.17
2022-11-06T14:03:45.958Z,27.38
2022-11-06T14:06:21.218Z,25.17
2022-11-06T14:08:56.674Z,27.23
2022-11-06T14:11:29.824Z,27.95
2022-11-06T14:14:11.559Z,27.55
2022-11-06T14:16:40.197Z,27.77
2022-11-06T14:19:29.880Z,22.70
2022-11-06T19:20:43.094Z,36.70
2022-11-06T19:23:14.361Z,32.50
2022-11-06T19:25:42.307Z,35.05
2022-11-06T19:28:09.863Z,31.05
2022-11-06T19:30:37.017Z,34.28
2022-11-06T19:33:04.281Z,34.25
2022-11-06T19:35:32.453Z,36.78
2022-11-06T19:37:59.192Z,33.45
2022-11-06T19:40:26.303Z,34.55
2022-11-06T19:42:52.921Z,38.33
2022-11-06T19:45:19.778Z,35.00
2022-11-06T19:47:46.385Z,35.03
2022-11-06T19:50:13.005Z,36.85
2022-11-06T19:52:47.355Z,36.33
2022-11-06T19:55:26.394Z,35.05
2022-11-06T19:57:54.752Z,34.67
2022-11-06T20:00:21.376Z,34.85
2022-11-06T20:02:51.343Z,34.35
2022-11-06T20:05:18.315Z,33.83
2022-11-06T20:07:45.180Z,34.85
2022-11-06T20:10:11.721Z,31.73
2022-11-06T20:12:38.485Z,33.17
2022-11-06T20:15:05.987Z,33.65
2022-11-06T20:17:32.570Z,33.92
2022-11-06T20:19:59.137Z,33.42
2022-11-06T20:22:25.908Z,35.63
2022-11-06T20:24:52.478Z,34.47
2022-11-06T20:27:19.375Z,33.33
2022-11-06T20:29:45.969Z,33.22
2022-11-06T20:32:17.689Z,30.48
2022-11-06T20:34:45.695Z,32.35
2022-11-06T20:37:12.717Z,37.03
2022-11-06T20:39:41.471Z,35.00
2022-11-06T20:42:08.323Z,36.08
2022-11-06T20:44:35.029Z,33.20
2022-11-06T20:47:01.631Z,36.95
2022-11-06T20:49:28.183Z,35.67
2022-11-06T20:52:13.233Z,31.50
2022-11-06T20:54:46.330Z,34.65
2022-11-06T20:57:15.041Z,35.58
2022-11-06T20:59:41.818Z,35.35
2022-11-06T21:02:10.971Z,33.05
2022-11-06T21:04:37.837Z,33.92
2022-11-06T21:07:04.444Z,36.22
2022-11-06T21:09:31.080Z,33.15
2022-11-06T21:11:57.699Z,35.75
2022-11-06T21:14:24.257Z,34.50
2022-11-06T21:16:50.802Z,36.35
2022-11-06T21:19:17.516Z,38.33
2022-11-06T21:21:44.057Z,33.88
2022-11-06T21:24:10.609Z,35.13
2022-11-06T21:26:38.394Z,41.17
2022-11-06T21:29:07.600Z,37.83
2022-11-06T21:31:34.918Z,38.88
2022-11-06T21:34:03.881Z,36.45
2022-11-06T21:36:33.839Z,35.47
2022-11-06T21:39:08.150Z,37.15
2022-11-06T21:41:35.239Z,38.28
2022-11-06T21:44:05.504Z,41.45
2022-11-06T21:46:32.758Z,43.53
2022-11-06T21:48:59.955Z,41.33
2022-11-06T21:51:29.383Z,42.22
2022-11-06T21:54:15.286Z,43.22
2022-11-06T21:56:42.988Z,39.28
2022-11-06T21:59:12.474Z,39.22
2022-11-06T22:01:40.903Z,41.53
2022-11-06T22:04:08.189Z,41.28
2022-11-06T22:06:34.957Z,39.25
2022-11-06T22:09:02.811Z,36.47
2022-11-06T22:11:32.195Z,40.45
2022-11-06T22:14:01.758Z,39.80
2022-11-06T22:16:31.430Z,37.95
2022-11-06T22:18:58.440Z,37.20
2022-11-06T22:21:27.709Z,40.80
2022-11-06T22:23:54.777Z,40.80
2022-11-06T22:26:23.937Z,41.85
2022-11-06T22:28:59.299Z,39.95
2022-11-06T22:31:27.425Z,41.10
2022-11-06T22:33:54.395Z,43.63
2022-11-06T22:36:22.326Z,40.85
2022-11-06T22:38:49.098Z,39.60
2022-11-06T22:41:17.961Z,39.22
2022-11-06T22:43:45.088Z,43.78
2022-11-06T22:46:17.775Z,43.90
2022-11-06T22:48:45.343Z,40.63
2022-11-06T22:51:17.703Z,44.22
2022-11-06T22:53:44.333Z,42.95
2022-11-06T22:56:14.539Z,41.03
2022-11-06T22:58:42.013Z,40.80
2022-11-06T23:01:10.214Z,45.53
2022-11-06T23:03:37.265Z,41.75
2022-11-06T23:06:06.757Z,44.33
2022-11-06T23:08:34.389Z,41.75
2022-11-06T23:11:11.614Z,43.75
2022-11-06T23:13:38.859Z,40.08
2022-11-06T23:16:11.889Z,41.75
2022-11-06T23:18:39.516Z,40.03
2022-11-06T23:21:18.861Z,39.38
2022-11-06T23:23:48.504Z,40.88
2022-11-06T23:26:17.270Z,41.75
2022-11-06T23:28:44.778Z,40.53
2022-11-06T23:31:13.246Z,44.15
2022-11-06T23:33:39.802Z,41.30
2022-11-06T23:36:08.127Z,39.05
2022-11-06T23:38:34.788Z,37.45
2022-11-06T23:41:26.308Z,40.63
2022-11-06T23:43:53.733Z,38.88
2022-11-06T23:46:22.049Z,38.08
2022-11-06T23:48:48.621Z,34.13
2022-11-06T23:51:15.467Z,36.88
2022-11-06T23:53:42.067Z,37.95
2022-11-06T23:56:12.984Z,35.25
2022-11-06T23:58:40.665Z,37.08
